sensor_id;sensor_type;location;lat;lon;timestamp;pressure;altitude;pressure_sealevel;temperature;humidity
83512;BME280;73446;0.000;0.000;2023-12-20T00:00:36;98764.44;;;20.07;33.17
83512;BME280;73446;0.000;0.000;2023-12-20T00:03:21;98766.31;;;20.07;32.81
83512;BME280;73446;0.000;0.000;2023-12-20T00:06:05;98765.78;;;20.05;32.91
83512;BME280;73446;0.000;0.000;2023-12-20T00:08:49;98756.19;;;20.04;33.07
83512;BME280;73446;0.000;0.000;2023-12-20T00:11:33;98760.44;;;20.05;32.95
83512;BME280;73446;0.000;0.000;2023-12-20T00:14:17;98750.06;;;20.03;33.00
83512;BME280;73446;0.000;0.000;2023-12-20T00:17:01;98759.13;;;20.02;33.02
83512;BME280;73446;0.000;0.000;2023-12-20T00:19:45;98756.47;;;20.02;32.84
83512;BME280;73446;0.000;0.000;2023-12-20T00:22:29;98758.31;;;20.02;32.86
83512;BME280;73446;0.000;0.000;2023-12-20T00:25:14;98759.41;;;20.01;32.90
83512;BME280;73446;0.000;0.000;2023-12-20T00:27:58;98754.06;;;20.01;33.11
83512;BME280;73446;0.000;0.000;2023-12-20T00:30:42;98757.81;;;20.00;33.14
83512;BME280;73446;0.000;0.000;2023-12-20T00:33:26;98752.47;;;20.00;32.96
83512;BME280;73446;0.000;0.000;2023-12-20T00:36:09;98754.34;;;19.99;32.91
83512;BME280;73446;0.000;0.000;2023-12-20T00:38:54;98754.34;;;19.99;33.07
83512;BME280;73446;0.000;0.000;2023-12-20T00:41:38;98750.88;;;19.99;33.14
83512;BME280;73446;0.000;0.000;2023-12-20T00:44:22;98758.88;;;19.99;32.94
83512;BME280;73446;0.000;0.000;2023-12-20T00:47:09;98760.75;;;19.98;32.95
83512;BME280;73446;0.000;0.000;2023-12-20T00:49:53;98757.28;;;19.98;33.08
83512;BME280;73446;0.000;0.000;2023-12-20T00:52:40;98766.38;;;19.97;33.00
83512;BME280;73446;0.000;0.000;2023-12-20T00:55:24;98760.25;;;19.96;33.07
83512;BME280;73446;0.000;0.000;2023-12-20T00:58:08;98767.44;;;19.96;32.97
83512;BME280;73446;0.000;0.000;2023-12-20T01:00:52;98764.78;;;19.96;33.01
83512;BME280;73446;0.000;0.000;2023-12-20T01:03:36;98763.97;;;19.95;33.09
83512;BME280;73446;0.000;0.000;2023-12-20T01:06:23;98774.91;;;19.94;32.76
83512;BME280;73446;0.000;0.000;2023-12-20T01:09:07;98767.97;;;19.92;32.96
83512;BME280;73446;0.000;0.000;2023-12-20T01:11:51;98780.25;;;19.94;33.05
83512;BME280;73446;0.000;0.000;2023-12-20T01:14:35;98771.44;;;19.93;32.90
83512;BME280;73446;0.000;0.000;2023-12-20T01:17:19;98770.66;;;19.92;33.02
83512;BME280;73446;0.000;0.000;2023-12-20T01:20:03;98766.38;;;19.91;33.09
83512;BME280;73446;0.000;0.000;2023-12-20T01:22:47;98762.13;;;19.90;32.91
83512;BME280;73446;0.000;0.000;2023-12-20T01:25:31;98759.44;;;19.90;33.09
83512;BME280;73446;0.000;0.000;2023-12-20T01:28:15;98761.31;;;19.90;32.95
83512;BME280;73446;0.000;0.000;2023-12-20T01:30:59;98764.78;;;19.90;33.02
83512;BME280;73446;0.000;0.000;2023-12-20T01:33:43;98752.53;;;19.89;32.96
83512;BME280;73446;0.000;0.000;2023-12-20T01:36:27;98756.25;;;19.88;32.97
83512;BME280;73446;0.000;0.000;2023-12-20T01:39:11;98753.59;;;19.88;33.03
83512;BME280;73446;0.000;0.000;2023-12-20T01:41:55;98750.13;;;19.88;33.24
83512;BME280;73446;0.000;0.000;2023-12-20T01:44:39;98751.19;;;19.87;33.01
83512;BME280;73446;0.000;0.000;2023-12-20T01:47:23;98753.06;;;19.86;33.09
83512;BME280;73446;0.000;0.000;2023-12-20T01:50:07;98748.81;;;19.85;33.01
83512;BME280;73446;0.000;0.000;2023-12-20T01:52:54;98738.13;;;19.85;33.09
83512;BME280;73446;0.000;0.000;2023-12-20T01:55:41;98747.19;;;19.84;33.02
83512;BME280;73446;0.000;0.000;2023-12-20T01:58:26;98744.53;;;19.84;32.88
83512;BME280;73446;0.000;0.000;2023-12-20T02:01:11;98749.06;;;19.84;33.16
83512;BME280;73446;0.000;0.000;2023-12-20T02:03:56;98764.28;;;19.83;33.20
83512;BME280;73446;0.000;0.000;2023-12-20T02:06:40;98759.22;;;19.82;33.04
83512;BME280;73446;0.000;0.000;2023-12-20T02:09:27;98758.41;;;19.81;33.31
83512;BME280;73446;0.000;0.000;2023-12-20T02:12:11;98760.28;;;19.81;33.12
83512;BME280;73446;0.000;0.000;2023-12-20T02:14:55;98764.84;;;19.80;33.15
83512;BME280;73446;0.000;0.000;2023-12-20T02:17:39;98756.84;;;19.80;33.04
83512;BME280;73446;0.000;0.000;2023-12-20T02:20:24;98746.19;;;19.80;33.15
83512;BME280;73446;0.000;0.000;2023-12-20T02:23:08;98745.38;;;19.80;33.06
83512;BME280;73446;0.000;0.000;2023-12-20T02:25:52;98748.03;;;19.80;33.25
83512;BME280;73446;0.000;0.000;2023-12-20T02:28:36;98755.25;;;19.79;33.22
83512;BME280;73446;0.000;0.000;2023-12-20T02:31:21;98744.84;;;19.78;33.01
83512;BME280;73446;0.000;0.000;2023-12-20T02:34:06;98737.66;;;19.78;33.18
83512;BME280;73446;0.000;0.000;2023-12-20T02:36:50;98748.31;;;19.78;33.18
83512;BME280;73446;0.000;0.000;2023-12-20T02:39:34;98754.72;;;19.77;33.19
83512;BME280;73446;0.000;0.000;2023-12-20T02:42:18;98760.03;;;19.77;33.10
83512;BME280;73446;0.000;0.000;2023-12-20T02:45:02;98751.25;;;19.77;33.11
83512;BME280;73446;0.000;0.000;2023-12-20T02:47:46;98764.59;;;19.77;33.21
83512;BME280;73446;0.000;0.000;2023-12-20T02:50:30;98756.84;;;19.75;33.10
83512;BME280;73446;0.000;0.000;2023-12-20T02:53:14;98762.97;;;19.76;33.01
83512;BME280;73446;0.000;0.000;2023-12-20T02:55:58;98770.19;;;19.75;33.33
83512;BME280;73446;0.000;0.000;2023-12-20T02:58:43;98773.91;;;19.74;33.29
83512;BME280;73446;0.000;0.000;2023-12-20T03:01:28;98780.06;;;19.75;33.28
83512;BME280;73446;0.000;0.000;2023-12-20T03:04:12;98778.44;;;19.74;33.39
83512;BME280;73446;0.000;0.000;2023-12-20T03:06:56;98774.97;;;19.73;33.16
83512;BME280;73446;0.000;0.000;2023-12-20T03:09:40;98781.38;;;19.72;33.02
83512;BME280;73446;0.000;0.000;2023-12-20T03:12:24;98778.72;;;19.72;33.20
83512;BME280;73446;0.000;0.000;2023-12-20T03:15:08;98780.59;;;19.72;33.29
83512;BME280;73446;0.000;0.000;2023-12-20T03:17:53;98785.91;;;19.72;33.20
83512;BME280;73446;0.000;0.000;2023-12-20T03:20:37;98797.38;;;19.72;33.29
83512;BME280;73446;0.000;0.000;2023-12-20T03:23:21;98794.19;;;19.70;33.04
83512;BME280;73446;0.000;0.000;2023-12-20T03:26:08;98786.19;;;19.70;33.11
83512;BME280;73446;0.000;0.000;2023-12-20T03:28:53;98769.66;;;19.68;33.15
83512;BME280;73446;0.000;0.000;2023-12-20T03:31:37;98768.84;;;19.68;33.37
83512;BME280;73446;0.000;0.000;2023-12-20T03:34:20;98775.25;;;19.67;33.13
83512;BME280;73446;0.000;0.000;2023-12-20T03:37:04;98785.66;;;19.68;33.34
83512;BME280;73446;0.000;0.000;2023-12-20T03:39:48;98791.25;;;19.67;33.42
83512;BME280;73446;0.000;0.000;2023-12-20T03:42:33;98786.19;;;19.65;33.56
83512;BME280;73446;0.000;0.000;2023-12-20T03:45:17;98783.53;;;19.65;33.26
83512;BME280;73446;0.000;0.000;2023-12-20T03:48:01;98778.19;;;19.65;33.24
83512;BME280;73446;0.000;0.000;2023-12-20T03:50:45;98775.53;;;19.65;33.52
83512;BME280;73446;0.000;0.000;2023-12-20T03:53:29;98774.72;;;19.65;33.51
83512;BME280;73446;0.000;0.000;2023-12-20T03:56:13;98784.63;;;19.64;33.30
83512;BME280;73446;0.000;0.000;2023-12-20T03:58:57;98776.31;;;19.66;33.75
83512;BME280;73446;0.000;0.000;2023-12-20T04:01:44;98779.78;;;19.66;33.40
83512;BME280;73446;0.000;0.000;2023-12-20T04:04:28;98787.78;;;19.66;33.53
83512;BME280;73446;0.000;0.000;2023-12-20T04:07:12;98780.59;;;19.67;33.36
83512;BME280;73446;0.000;0.000;2023-12-20T04:09:56;98779.00;;;19.66;33.22
83512;BME280;73446;0.000;0.000;2023-12-20T04:12:40;98777.13;;;19.66;33.22
83512;BME280;73446;0.000;0.000;2023-12-20T04:15:24;98801.13;;;19.66;33.32
83512;BME280;73446;0.000;0.000;2023-12-20T04:18:08;98811.78;;;19.66;33.28
83512;BME280;73446;0.000;0.000;2023-12-20T04:20:51;98806.44;;;19.66;33.24
83512;BME280;73446;0.000;0.000;2023-12-20T04:23:35;98809.91;;;19.67;33.01
83512;BME280;73446;0.000;0.000;2023-12-20T04:26:19;98812.31;;;19.68;33.08
83512;BME280;73446;0.000;0.000;2023-12-20T04:29:03;98804.31;;;19.68;32.96
83512;BME280;73446;0.000;0.000;2023-12-20T04:31:47;98815.50;;;19.70;32.87
83512;BME280;73446;0.000;0.000;2023-12-20T04:34:31;98798.19;;;19.68;33.34
83512;BME280;73446;0.000;0.000;2023-12-20T04:37:15;98809.66;;;19.68;33.33
83512;BME280;73446;0.000;0.000;2023-12-20T04:39:59;98811.25;;;19.69;33.08
83512;BME280;73446;0.000;0.000;2023-12-20T04:42:43;98826.19;;;19.70;33.24
83512;BME280;73446;0.000;0.000;2023-12-20T04:45:27;98831.25;;;19.72;33.14
83512;BME280;73446;0.000;0.000;2023-12-20T04:48:11;98825.09;;;19.71;33.11
83512;BME280;73446;0.000;0.000;2023-12-20T04:50:56;98830.97;;;19.73;33.01
83512;BME280;73446;0.000;0.000;2023-12-20T04:53:40;98825.66;;;19.73;33.25
83512;BME280;73446;0.000;0.000;2023-12-20T04:56:24;98837.91;;;19.74;33.02
83512;BME280;73446;0.000;0.000;2023-12-20T04:59:08;98836.84;;;19.75;33.12
83512;BME280;73446;0.000;0.000;2023-12-20T05:01:52;98833.91;;;19.77;33.11
83512;BME280;73446;0.000;0.000;2023-12-20T05:04:36;98836.31;;;19.78;33.09
83512;BME280;73446;0.000;0.000;2023-12-20T05:07:20;98844.31;;;19.78;33.06
83512;BME280;73446;0.000;0.000;2023-12-20T05:10:05;98851.22;;;19.79;32.81
83512;BME280;73446;0.000;0.000;2023-12-20T05:12:49;98846.69;;;19.80;33.02
83512;BME280;73446;0.000;0.000;2023-12-20T05:15:33;98845.09;;;19.79;33.02
83512;BME280;73446;0.000;0.000;2023-12-20T05:18:17;98849.88;;;19.82;33.04
83512;BME280;73446;0.000;0.000;2023-12-20T05:21:01;98855.19;;;19.82;32.88
83512;BME280;73446;0.000;0.000;2023-12-20T05:23:45;98853.06;;;19.84;33.10
83512;BME280;73446;0.000;0.000;2023-12-20T05:26:29;98853.88;;;19.84;33.20
83512;BME280;73446;0.000;0.000;2023-12-20T05:29:14;98860.00;;;19.85;33.00
83512;BME280;73446;0.000;0.000;2023-12-20T05:31:58;98865.34;;;19.85;32.97
83512;BME280;73446;0.000;0.000;2023-12-20T05:34:42;98867.75;;;19.86;32.95
83512;BME280;73446;0.000;0.000;2023-12-20T05:37:26;98870.66;;;19.85;33.00
83512;BME280;73446;0.000;0.000;2023-12-20T05:40:10;98869.91;;;19.79;33.17
83512;BME280;73446;0.000;0.000;2023-12-20T05:42:54;98872.03;;;19.77;33.19
83512;BME280;73446;0.000;0.000;2023-12-20T05:45:38;98871.19;;;19.82;33.21
83512;BME280;73446;0.000;0.000;2023-12-20T05:48:22;98874.41;;;19.84;33.07
83512;BME280;73446;0.000;0.000;2023-12-20T05:51:06;98879.47;;;19.85;32.80
83512;BME280;73446;0.000;0.000;2023-12-20T05:53:50;98877.59;;;19.86;32.90
83512;BME280;73446;0.000;0.000;2023-12-20T05:56:34;98870.13;;;19.88;32.87
83512;BME280;73446;0.000;0.000;2023-12-20T05:59:18;98879.19;;;19.87;32.95
83512;BME280;73446;0.000;0.000;2023-12-20T06:02:03;98888.53;;;19.89;32.99
83512;BME280;73446;0.000;0.000;2023-12-20T06:04:48;98894.94;;;19.88;32.89
83512;BME280;73446;0.000;0.000;2023-12-20T06:07:32;98899.19;;;19.89;32.76
83512;BME280;73446;0.000;0.000;2023-12-20T06:10:17;98905.88;;;19.92;32.98
83512;BME280;73446;0.000;0.000;2023-12-20T06:13:01;98905.34;;;19.95;32.92
83512;BME280;73446;0.000;0.000;2023-12-20T06:15:46;98916.50;;;19.97;33.06
83512;BME280;73446;0.000;0.000;2023-12-20T06:18:30;98917.31;;;19.98;32.70
83512;BME280;73446;0.000;0.000;2023-12-20T06:21:14;98921.56;;;19.99;32.97
83512;BME280;73446;0.000;0.000;2023-12-20T06:23:59;98934.38;;;20.02;33.02
83512;BME280;73446;0.000;0.000;2023-12-20T06:26:43;98938.38;;;20.04;33.56
83512;BME280;73446;0.000;0.000;2023-12-20T06:29:27;98954.66;;;20.08;33.60
83512;BME280;73446;0.000;0.000;2023-12-20T06:32:12;98953.06;;;20.07;33.73
83512;BME280;73446;0.000;0.000;2023-12-20T06:34:56;98953.06;;;20.07;33.48
83512;BME280;73446;0.000;0.000;2023-12-20T06:37:40;98949.31;;;20.08;33.94
83512;BME280;73446;0.000;0.000;2023-12-20T06:40:29;98956.25;;;20.09;33.90
83512;BME280;73446;0.000;0.000;2023-12-20T06:43:13;98955.19;;;20.05;34.37
83512;BME280;73446;0.000;0.000;2023-12-20T06:45:58;98952.56;;;19.95;35.24
83512;BME280;73446;0.000;0.000;2023-12-20T06:48:42;98960.53;;;19.89;35.65
83512;BME280;73446;0.000;0.000;2023-12-20T06:51:27;98958.16;;;19.88;35.23
83512;BME280;73446;0.000;0.000;2023-12-20T06:54:12;98962.69;;;19.87;34.99
83512;BME280;73446;0.000;0.000;2023-12-20T06:56:56;98964.28;;;19.88;34.77
83512;BME280;73446;0.000;0.000;2023-12-20T06:59:40;98966.94;;;19.88;35.20
83512;BME280;73446;0.000;0.000;2023-12-20T07:02:24;98975.22;;;19.87;35.33
83512;BME280;73446;0.000;0.000;2023-12-20T07:05:08;98982.41;;;19.86;35.29
83512;BME280;73446;0.000;0.000;2023-12-20T07:07:52;98976.28;;;19.86;35.18
83512;BME280;73446;0.000;0.000;2023-12-20T07:10:36;98974.94;;;19.83;34.89
83512;BME280;73446;0.000;0.000;2023-12-20T07:13:20;98991.47;;;19.85;35.47
83512;BME280;73446;0.000;0.000;2023-12-20T07:16:05;98998.41;;;19.86;35.22
83512;BME280;73446;0.000;0.000;2023-12-20T07:18:49;98992.03;;;19.92;34.96
83512;BME280;73446;0.000;0.000;2023-12-20T07:21:34;98988.81;;;19.96;34.60
83512;BME280;73446;0.000;0.000;2023-12-20T07:24:21;98990.44;;;19.97;34.30
83512;BME280;73446;0.000;0.000;2023-12-20T07:27:04;98992.78;;;19.98;33.75
83512;BME280;73446;0.000;0.000;2023-12-20T07:29:48;99000.00;;;19.98;33.66
83512;BME280;73446;0.000;0.000;2023-12-20T07:32:32;99001.06;;;20.02;34.97
83512;BME280;73446;0.000;0.000;2023-12-20T07:35:16;99013.06;;;19.99;35.16
83512;BME280;73446;0.000;0.000;2023-12-20T07:38:00;99006.94;;;19.99;34.51
83512;BME280;73446;0.000;0.000;2023-12-20T07:40:44;99011.19;;;20.00;33.92
83512;BME280;73446;0.000;0.000;2023-12-20T07:43:28;99009.88;;;20.02;33.94
83512;BME280;73446;0.000;0.000;2023-12-20T07:46:12;99018.41;;;20.04;34.26
83512;BME280;73446;0.000;0.000;2023-12-20T07:48:56;99016.28;;;20.01;34.42
83512;BME280;73446;0.000;0.000;2023-12-20T07:51:40;99023.22;;;20.07;34.93
83512;BME280;73446;0.000;0.000;2023-12-20T07:54:24;99034.41;;;20.14;35.19
83512;BME280;73446;0.000;0.000;2023-12-20T07:57:08;99026.16;;;20.11;35.25
83512;BME280;73446;0.000;0.000;2023-12-20T07:59:52;99024.00;;;20.03;35.79
83512;BME280;73446;0.000;0.000;2023-12-20T08:02:36;99027.75;;;20.02;34.97
83512;BME280;73446;0.000;0.000;2023-12-20T08:05:23;99029.88;;;20.05;35.63
83512;BME280;73446;0.000;0.000;2023-12-20T08:08:07;99025.06;;;20.02;35.92
83512;BME280;73446;0.000;0.000;2023-12-20T08:10:51;99029.88;;;20.05;35.19
83512;BME280;73446;0.000;0.000;2023-12-20T08:13:35;99040.03;;;20.08;34.80
83512;BME280;73446;0.000;0.000;2023-12-20T08:16:20;99037.09;;;20.09;34.83
83512;BME280;73446;0.000;0.000;2023-12-20T08:19:04;99044.84;;;20.11;34.68
83512;BME280;73446;0.000;0.000;2023-12-20T08:21:48;99044.84;;;20.11;34.73
83512;BME280;73446;0.000;0.000;2023-12-20T08:24:32;99041.09;;;20.12;34.32
83512;BME280;73446;0.000;0.000;2023-12-20T08:27:16;99053.63;;;20.11;34.54
83512;BME280;73446;0.000;0.000;2023-12-20T08:30:00;99066.19;;;20.11;34.14
83512;BME280;73446;0.000;0.000;2023-12-20T08:32:44;99056.31;;;20.11;34.00
83512;BME280;73446;0.000;0.000;2023-12-20T08:35:28;99058.97;;;20.11;33.75
83512;BME280;73446;0.000;0.000;2023-12-20T08:38:12;99056.31;;;20.11;33.67
83512;BME280;73446;0.000;0.000;2023-12-20T08:40:57;99048.31;;;20.11;33.38
83512;BME280;73446;0.000;0.000;2023-12-20T08:43:41;99043.47;;;20.13;33.09
83512;BME280;73446;0.000;0.000;2023-12-20T08:46:25;99054.94;;;20.14;32.96
83512;BME280;73446;0.000;0.000;2023-12-20T08:49:09;99064.56;;;20.15;32.86
83512;BME280;73446;0.000;0.000;2023-12-20T08:51:53;99079.50;;;20.16;33.02
83512;BME280;73446;0.000;0.000;2023-12-20T08:54:37;99066.94;;;20.16;32.78
83512;BME280;73446;0.000;0.000;2023-12-20T08:57:21;99058.16;;;20.16;32.67
83512;BME280;73446;0.000;0.000;2023-12-20T09:00:08;99057.63;;;20.14;33.73
83512;BME280;73446;0.000;0.000;2023-12-20T09:02:52;99058.94;;;20.21;34.86
83512;BME280;73446;0.000;0.000;2023-12-20T09:05:36;99054.13;;;20.13;37.18
83512;BME280;73446;0.000;0.000;2023-12-20T09:08:20;99051.50;;;20.08;38.76
83512;BME280;73446;0.000;0.000;2023-12-20T09:11:06;99044.03;;;20.10;37.87
83512;BME280;73446;0.000;0.000;2023-12-20T09:13:50;99048.53;;;20.15;36.76
83512;BME280;73446;0.000;0.000;2023-12-20T09:16:34;99057.88;;;20.17;35.74
83512;BME280;73446;0.000;0.000;2023-12-20T09:19:18;99053.63;;;20.16;35.25
83512;BME280;73446;0.000;0.000;2023-12-20T09:22:02;99057.09;;;20.17;34.86
83512;BME280;73446;0.000;0.000;2023-12-20T09:24:47;99065.88;;;20.17;34.19
83512;BME280;73446;0.000;0.000;2023-12-20T09:27:31;99062.16;;;20.18;33.55
83512;BME280;73446;0.000;0.000;2023-12-20T09:30:15;99058.69;;;20.18;33.43
83512;BME280;73446;0.000;0.000;2023-12-20T09:32:59;99059.50;;;20.18;33.20
83512;BME280;73446;0.000;0.000;2023-12-20T09:35:43;99062.94;;;20.19;33.01
83512;BME280;73446;0.000;0.000;2023-12-20T09:38:28;99052.28;;;20.19;32.60
83512;BME280;73446;0.000;0.000;2023-12-20T09:41:12;99061.09;;;20.19;32.44
83512;BME280;73446;0.000;0.000;2023-12-20T09:44:02;99064.56;;;20.20;31.98
83512;BME280;73446;0.000;0.000;2023-12-20T09:46:49;99059.50;;;20.18;32.25
83512;BME280;73446;0.000;0.000;2023-12-20T09:49:35;99069.91;;;20.20;32.18
83512;BME280;73446;0.000;0.000;2023-12-20T09:52:22;99074.97;;;20.21;31.76
83512;BME280;73446;0.000;0.000;2023-12-20T09:55:07;99076.84;;;20.21;31.80
83512;BME280;73446;0.000;0.000;2023-12-20T09:57:54;99072.03;;;20.23;31.64
83512;BME280;73446;0.000;0.000;2023-12-20T10:00:39;99079.25;;;20.22;31.42
83512;BME280;73446;0.000;0.000;2023-12-20T10:03:25;99067.75;;;20.22;31.31
83512;BME280;73446;0.000;0.000;2023-12-20T10:06:10;99074.69;;;20.23;31.33
83512;BME280;73446;0.000;0.000;2023-12-20T10:08:54;99067.75;;;20.22;31.44
83512;BME280;73446;0.000;0.000;2023-12-20T10:11:39;99069.38;;;20.23;31.54
83512;BME280;73446;0.000;0.000;2023-12-20T10:14:23;99077.88;;;20.15;32.02
83512;BME280;73446;0.000;0.000;2023-12-20T10:17:07;99076.31;;;20.09;32.80
83512;BME280;73446;0.000;0.000;2023-12-20T10:19:52;99071.50;;;20.06;33.17
83512;BME280;73446;0.000;0.000;2023-12-20T10:22:36;99073.91;;;20.07;33.28
83512;BME280;73446;0.000;0.000;2023-12-20T10:25:21;99073.09;;;20.07;33.56
83512;BME280;73446;0.000;0.000;2023-12-20T10:30:52;99060.03;;;20.05;33.30
83512;BME280;73446;0.000;0.000;2023-12-20T10:33:39;99057.38;;;20.05;32.99
83512;BME280;73446;0.000;0.000;2023-12-20T10:36:29;99051.22;;;20.05;33.37
83512;BME280;73446;0.000;0.000;2023-12-20T10:39:14;99066.44;;;20.04;34.03
83512;BME280;73446;0.000;0.000;2023-12-20T10:41:59;99057.88;;;20.02;34.18
83512;BME280;73446;0.000;0.000;2023-12-20T10:44:42;99046.41;;;20.02;34.06
83512;BME280;73446;0.000;0.000;2023-12-20T10:47:27;99056.28;;;20.01;34.56
83512;BME280;73446;0.000;0.000;2023-12-20T10:50:11;99050.16;;;20.01;34.20
83512;BME280;73446;0.000;0.000;2023-12-20T10:52:58;99057.09;;;20.02;35.56
83512;BME280;73446;0.000;0.000;2023-12-20T10:55:44;99051.75;;;20.02;34.76
83512;BME280;73446;0.000;0.000;2023-12-20T10:58:29;99031.47;;;20.01;34.76
83512;BME280;73446;0.000;0.000;2023-12-20T11:01:14;99039.47;;;20.01;34.36
83512;BME280;73446;0.000;0.000;2023-12-20T11:04:10;99031.47;;;20.01;34.49
83512;BME280;73446;0.000;0.000;2023-12-20T11:07:22;99026.13;;;20.01;34.81
83512;BME280;73446;0.000;0.000;2023-12-20T11:15:49;99007.19;;;19.97;34.77
83512;BME280;73446;0.000;0.000;2023-12-20T11:18:33;99011.75;;;19.97;34.31
83512;BME280;73446;0.000;0.000;2023-12-20T11:21:17;99009.09;;;19.97;34.14
83512;BME280;73446;0.000;0.000;2023-12-20T11:24:02;99009.09;;;19.97;34.06
83512;BME280;73446;0.000;0.000;2023-12-20T11:26:47;99017.09;;;19.97;34.01
83512;BME280;73446;0.000;0.000;2023-12-20T11:29:35;99006.44;;;19.97;33.56
83512;BME280;73446;0.000;0.000;2023-12-20T11:37:57;99012.03;;;19.90;34.68
83512;BME280;73446;0.000;0.000;2023-12-20T11:40:42;99006.16;;;19.93;34.24
83512;BME280;73446;0.000;0.000;2023-12-20T11:43:37;99002.44;;;19.94;34.01
83512;BME280;73446;0.000;0.000;2023-12-20T11:46:21;99003.22;;;19.95;33.83
83512;BME280;73446;0.000;0.000;2023-12-20T11:49:06;98994.69;;;19.92;33.58
83512;BME280;73446;0.000;0.000;2023-12-20T11:51:50;98996.56;;;19.92;33.52
83512;BME280;73446;0.000;0.000;2023-12-20T11:54:34;98994.69;;;19.92;33.73
83512;BME280;73446;0.000;0.000;2023-12-20T11:57:18;99000.03;;;19.92;33.36
83512;BME280;73446;0.000;0.000;2023-12-20T12:00:03;98999.22;;;19.92;33.43
83512;BME280;73446;0.000;0.000;2023-12-20T12:02:57;98993.09;;;19.91;33.41
83512;BME280;73446;0.000;0.000;2023-12-20T12:05:41;99003.50;;;19.93;33.33
83512;BME280;73446;0.000;0.000;2023-12-20T12:08:25;99009.09;;;19.91;33.41
83512;BME280;73446;0.000;0.000;2023-12-20T12:11:09;99011.75;;;19.91;33.45
83512;BME280;73446;0.000;0.000;2023-12-20T12:13:53;98994.16;;;19.90;33.58
83512;BME280;73446;0.000;0.000;2023-12-20T12:16:37;98980.81;;;19.90;33.74
83512;BME280;73446;0.000;0.000;2023-12-20T12:19:23;98980.28;;;19.88;36.18
83512;BME280;73446;0.000;0.000;2023-12-20T12:22:09;98974.69;;;19.90;35.95
83512;BME280;73446;0.000;0.000;2023-12-20T12:25:10;98982.94;;;19.88;36.88
83512;BME280;73446;0.000;0.000;2023-12-20T12:27:55;98974.69;;;19.90;35.82
83512;BME280;73446;0.000;0.000;2023-12-20T12:30:39;98960.28;;;19.91;36.98
83512;BME280;73446;0.000;0.000;2023-12-20T12:33:27;98974.94;;;19.94;36.74
83512;BME280;73446;0.000;0.000;2023-12-20T12:36:12;98974.94;;;19.94;37.60
83512;BME280;73446;0.000;0.000;2023-12-20T12:38:57;98986.41;;;19.94;37.59
83512;BME280;73446;0.000;0.000;2023-12-20T12:41:41;98976.81;;;19.93;37.53
83512;BME280;73446;0.000;0.000;2023-12-20T12:44:26;98985.09;;;19.91;36.88
83512;BME280;73446;0.000;0.000;2023-12-20T12:47:10;98977.63;;;19.94;36.66
83512;BME280;73446;0.000;0.000;2023-12-20T12:49:54;98966.41;;;19.97;36.80
83512;BME280;73446;0.000;0.000;2023-12-20T12:52:38;98967.47;;;19.96;37.06
83512;BME280;73446;0.000;0.000;2023-12-20T12:55:22;98966.69;;;19.95;36.78
83512;BME280;73446;0.000;0.000;2023-12-20T12:58:06;98976.00;;;19.92;36.80
83512;BME280;73446;0.000;0.000;2023-12-20T13:00:50;98967.47;;;19.90;37.07
83512;BME280;73446;0.000;0.000;2023-12-20T13:03:35;98970.94;;;19.91;36.89
83512;BME280;73446;0.000;0.000;2023-12-20T13:06:19;98968.00;;;19.92;37.24
83512;BME280;73446;0.000;0.000;2023-12-20T13:09:04;98958.94;;;19.94;36.78
83512;BME280;73446;0.000;0.000;2023-12-20T13:11:48;98975.75;;;19.94;37.10
83512;BME280;73446;0.000;0.000;2023-12-20T13:14:33;98972.28;;;19.94;37.15
83512;BME280;73446;0.000;0.000;2023-12-20T13:17:18;98969.34;;;19.95;37.09
83512;BME280;73446;0.000;0.000;2023-12-20T13:20:02;98973.31;;;19.98;37.20
83512;BME280;73446;0.000;0.000;2023-12-20T13:22:46;98967.72;;;19.99;37.01
83512;BME280;73446;0.000;0.000;2023-12-20T13:25:30;98963.44;;;19.98;36.77
83512;BME280;73446;0.000;0.000;2023-12-20T13:28:14;98964.25;;;19.99;36.84
83512;BME280;73446;0.000;0.000;2023-12-20T13:30:58;98961.59;;;19.99;36.45
83512;BME280;73446;0.000;0.000;2023-12-20T13:33:43;98962.94;;;19.96;36.87
83512;BME280;73446;0.000;0.000;2023-12-20T13:36:27;98963.47;;;19.93;35.78
83512;BME280;73446;0.000;0.000;2023-12-20T13:39:12;98966.16;;;19.93;35.53
83512;BME280;73446;0.000;0.000;2023-12-20T13:41:56;98957.34;;;19.92;35.31
83512;BME280;73446;0.000;0.000;2023-12-20T13:44:40;98962.69;;;19.92;34.71
83512;BME280;73446;0.000;0.000;2023-12-20T13:47:24;98946.94;;;19.91;34.58
83512;BME280;73446;0.000;0.000;2023-12-20T13:50:08;98949.34;;;19.92;34.21
83512;BME280;73446;0.000;0.000;2023-12-20T13:52:53;98940.81;;;19.90;33.92
83512;BME280;73446;0.000;0.000;2023-12-20T13:55:36;98936.00;;;19.92;34.00
83512;BME280;73446;0.000;0.000;2023-12-20T13:58:21;98942.41;;;19.91;33.88
83512;BME280;73446;0.000;0.000;2023-12-20T14:01:05;98936.53;;;19.89;33.94
83512;BME280;73446;0.000;0.000;2023-12-20T14:03:49;98933.59;;;19.91;33.79
83512;BME280;73446;0.000;0.000;2023-12-20T14:06:33;98932.53;;;19.92;33.80
83512;BME280;73446;0.000;0.000;2023-12-20T14:09:18;98915.22;;;19.89;33.77
83512;BME280;73446;0.000;0.000;2023-12-20T14:12:02;98917.59;;;19.91;33.53
83512;BME280;73446;0.000;0.000;2023-12-20T14:14:46;98924.00;;;19.90;33.46
83512;BME280;73446;0.000;0.000;2023-12-20T14:17:30;98923.47;;;19.88;33.76
83512;BME280;73446;0.000;0.000;2023-12-20T14:20:15;98921.06;;;19.86;34.06
83512;BME280;73446;0.000;0.000;2023-12-20T14:23:03;98924.53;;;19.87;34.23
83512;BME280;73446;0.000;0.000;2023-12-20T14:25:47;98925.06;;;19.89;33.87
83512;BME280;73446;0.000;0.000;2023-12-20T14:28:32;98920.53;;;19.89;33.75
83512;BME280;73446;0.000;0.000;2023-12-20T14:31:17;98918.94;;;19.88;33.78
83512;BME280;73446;0.000;0.000;2023-12-20T14:34:01;98914.94;;;19.86;33.74
83512;BME280;73446;0.000;0.000;2023-12-20T14:36:48;98918.41;;;19.86;33.45
83512;BME280;73446;0.000;0.000;2023-12-20T14:39:32;98916.81;;;19.85;33.40
83512;BME280;73446;0.000;0.000;2023-12-20T14:42:16;98929.06;;;19.86;33.52
83512;BME280;73446;0.000;0.000;2023-12-20T14:45:00;98927.75;;;19.84;33.28
83512;BME280;73446;0.000;0.000;2023-12-20T14:47:44;98940.00;;;19.85;33.33
83512;BME280;73446;0.000;0.000;2023-12-20T14:50:28;98938.41;;;19.84;33.40
83512;BME280;73446;0.000;0.000;2023-12-20T14:53:12;98934.66;;;19.85;33.36
83512;BME280;73446;0.000;0.000;2023-12-20T14:55:56;98933.34;;;19.82;33.48